Constanti, Spain
Current Conditions -  °F | °C
As of 8:30 PM on Thursday 27 Nov 2014 (Local Time) from LERS Reporting Station
Scattered Clouds Scattered Clouds  
Wind Chill: 57°   Ceiling: Unl
Heat Index: 57°   Visibility: 6mi
Dew Point: 55°   Wind: 7mph
Humidity: 94%   Direction: 70°ENE
Pressure: 29.56"   Gusts: NA
Location:  41.15°N, 1.21°E
Report Text: LERS 271930Z 07006KT 050V120 9999 FEW020 SCT032 14/13 Q1001
Loading
Personal Weather Stations






























Interactive Weather Map New forecast layout! Learn more

10-Day Weather Forecast

Advertisements
Track Severe Weather on mobile